createdAt,value
2023-01-17T00:02:24.170Z,89.22
2023-01-17T00:05:10.919Z,89.31
2023-01-17T00:07:57.432Z,89.38
2023-01-17T00:10:27.861Z,89.45
2023-01-17T00:12:57.589Z,89.48
2023-01-17T00:15:26.889Z,89.57
2023-01-17T00:17:54.928Z,89.62
2023-01-17T00:20:51.161Z,89.65
2023-01-17T00:23:43.899Z,89.65
2023-01-17T00:26:15.677Z,89.66
2023-01-17T00:28:43.943Z,89.69
2023-01-17T00:31:13.701Z,89.64
2023-01-17T00:33:41.611Z,89.68
2023-01-17T00:36:10.313Z,89.71
2023-01-17T00:38:39.776Z,89.83
2023-01-17T00:41:09.210Z,89.84
2023-01-17T00:43:55.820Z,89.88
2023-01-17T00:46:42.486Z,89.90
2023-01-17T00:49:29.224Z,89.92
2023-01-17T00:52:15.826Z,89.97
2023-01-17T00:55:02.118Z,89.96
2023-01-17T00:57:49.143Z,89.95
2023-01-17T07:01:13.305Z,90.02
2023-01-17T07:03:42.910Z,90.08
2023-01-17T07:06:10.978Z,90.16
2023-01-17T07:08:38.799Z,90.22
2023-01-17T07:11:08.385Z,90.23
2023-01-17T07:13:37.997Z,90.27
2023-01-17T07:16:07.710Z,90.29
2023-01-17T07:18:35.551Z,90.26
2023-01-17T07:21:03.543Z,90.27
2023-01-17T07:23:31.504Z,90.32
2023-01-17T07:26:00.813Z,90.33
2023-01-17T07:28:29.099Z,90.41
2023-01-17T07:30:57.540Z,90.46
2023-01-17T07:33:25.507Z,90.46
2023-01-17T07:35:53.385Z,90.44
2023-01-17T07:38:21.276Z,90.49
2023-01-17T07:40:49.265Z,90.57
2023-01-17T07:43:17.480Z,90.59
2023-01-17T07:45:50.985Z,90.58
2023-01-17T07:48:21.308Z,90.60
2023-01-17T07:50:56.954Z,90.61
2023-01-17T07:53:30.051Z,90.60
2023-01-17T07:56:02.715Z,90.65
2023-01-17T07:58:31.401Z,90.66
2023-01-17T08:01:07.906Z,90.67
2023-01-17T08:03:40.082Z,90.64
2023-01-17T08:06:25.614Z,90.51
2023-01-17T08:08:56.661Z,90.32
2023-01-17T08:11:25.270Z,90.04
2023-01-17T08:13:57.603Z,90.02
2023-01-17T08:16:27.181Z,89.85
2023-01-17T08:18:56.401Z,89.70
2023-01-17T08:21:24.427Z,89.34
2023-01-17T08:23:52.860Z,89.19
2023-01-17T08:26:22.415Z,89.18
2023-01-17T08:29:01.076Z,89.25
2023-01-17T08:31:31.961Z,88.92
2023-01-17T08:34:00.123Z,88.88
2023-01-17T08:36:28.837Z,88.85
2023-01-17T08:38:57.615Z,88.70
2023-01-17T08:41:27.844Z,88.47
2023-01-17T08:43:55.648Z,88.41
2023-01-17T08:46:24.578Z,88.45
2023-01-17T08:48:58.860Z,88.49
2023-01-17T08:51:27.867Z,88.53
2023-01-17T08:53:56.631Z,88.54
2023-01-17T08:56:26.139Z,88.57
2023-01-17T08:58:54.042Z,88.53
2023-01-17T09:01:21.905Z,88.50
2023-01-17T09:03:51.528Z,88.35
2023-01-17T09:06:19.490Z,88.23
2023-01-17T09:08:48.643Z,88.14
2023-01-17T09:11:17.548Z,88.01
2023-01-17T09:13:45.398Z,87.84
2023-01-17T09:16:13.305Z,87.77
2023-01-17T09:18:41.062Z,87.50
2023-01-17T09:21:18.894Z,87.32
2023-01-17T09:23:47.142Z,87.15
2023-01-17T09:26:29.101Z,87.14
2023-01-17T09:28:58.834Z,87.05
2023-01-17T09:31:29.854Z,86.98
2023-01-17T09:33:58.528Z,86.95
2023-01-17T09:36:29.244Z,86.91
2023-01-17T09:38:58.363Z,86.88
2023-01-17T09:41:42.815Z,86.85
2023-01-17T09:44:36.590Z,86.78
2023-01-17T09:47:40.769Z,86.76
2023-01-17T09:50:20.804Z,86.73
2023-01-17T09:52:48.591Z,86.71
2023-01-17T09:55:17.792Z,86.68
2023-01-17T09:58:20.496Z,86.66
2023-01-17T10:01:12.373Z,86.58
2023-01-17T10:04:01.692Z,86.48
2023-01-17T10:06:43.701Z,86.44
2023-01-17T10:09:41.713Z,86.27
2023-01-17T10:12:28.571Z,86.03
2023-01-17T10:15:45.286Z,85.92
2023-01-17T10:18:28.894Z,85.58
2023-01-17T10:21:08.968Z,85.46
2023-01-17T10:24:21.377Z,85.34
2023-01-17T10:26:52.989Z,85.24
2023-01-17T10:29:21.244Z,84.95
2023-01-17T10:31:59.238Z,84.96
2023-01-17T10:34:40.808Z,85.12
2023-01-17T10:37:20.540Z,85.05
2023-01-17T10:39:50.222Z,84.85
2023-01-17T10:42:32.970Z,84.79
2023-01-17T10:45:16.699Z,84.73
2023-01-17T10:47:51.942Z,84.51
2023-01-17T10:50:22.695Z,84.46
2023-01-17T10:52:51.697Z,84.29
2023-01-17T10:55:47.589Z,84.20
2023-01-17T10:58:15.456Z,84.29
2023-01-17T11:00:49.472Z,84.22
2023-01-17T11:03:24.054Z,84.09
2023-01-17T11:06:22.380Z,83.99
2023-01-17T11:08:52.439Z,83.87
2023-01-17T11:11:23.742Z,83.75
2023-01-17T11:13:55.190Z,83.58
2023-01-17T11:16:29.800Z,83.49
2023-01-17T11:19:08.823Z,83.32
2023-01-17T11:21:39.560Z,83.13
2023-01-17T11:24:17.885Z,82.83
2023-01-17T11:26:49.649Z,83.07
2023-01-17T11:29:37.250Z,82.93
2023-01-17T11:32:23.882Z,82.64
2023-01-17T11:35:10.062Z,82.34
2023-01-17T11:37:38.026Z,82.44
2023-01-17T11:40:17.055Z,82.41
2023-01-17T11:42:45.123Z,82.36
2023-01-17T11:45:26.105Z,82.31
2023-01-17T11:48:09.655Z,82.27
2023-01-17T11:50:56.257Z,82.10
2023-01-17T11:53:24.204Z,82.05
2023-01-17T11:56:05.450Z,81.99
2023-01-17T11:58:36.876Z,82.10
2023-01-17T12:01:10.892Z,82.10
2023-01-17T12:03:44.868Z,82.23
2023-01-17T12:06:56.562Z,82.12
2023-01-17T12:09:37.637Z,81.80
2023-01-17T12:12:30.060Z,82.15
2023-01-17T12:15:22.908Z,82.09
2023-01-17T12:18:09.973Z,82.29
2023-01-17T12:20:41.691Z,82.30
2023-01-17T12:23:28.547Z,82.21
2023-01-17T12:26:09.228Z,82.07
2023-01-17T12:29:06.727Z,80.99
2023-01-17T12:31:52.925Z,80.31
2023-01-17T12:34:34.703Z,80.79
2023-01-17T12:37:18.369Z,81.41
2023-01-17T12:39:56.151Z,81.32
2023-01-17T12:42:31.185Z,81.57
2023-01-17T12:45:06.126Z,81.75
2023-01-17T12:47:43.100Z,81.69
2023-01-17T12:50:28.865Z,81.30
2023-01-17T12:53:06.635Z,81.41
2023-01-17T12:55:50.002Z,81.21
2023-01-17T12:58:25.249Z,81.32
2023-01-17T13:01:19.398Z,81.17
2023-01-17T13:04:25.701Z,81.16
2023-01-17T13:07:00.163Z,81.51
2023-01-17T13:09:51.817Z,80.58
2023-01-17T13:12:22.140Z,80.63
2023-01-17T13:14:50.228Z,80.89
2023-01-17T13:17:35.176Z,80.91
2023-01-17T13:20:32.127Z,80.33
2023-01-17T13:23:28.563Z,80.41
2023-01-17T13:25:59.464Z,80.30
2023-01-17T13:28:44.695Z,80.51
2023-01-17T13:31:34.906Z,80.34
2023-01-17T13:34:11.556Z,79.71
2023-01-17T13:37:09.507Z,80.13
2023-01-17T13:40:26.900Z,80.34
2023-01-17T13:42:57.355Z,80.09
2023-01-17T13:45:31.309Z,79.82
2023-01-17T13:48:17.353Z,79.96
2023-01-17T13:50:48.793Z,80.05
2023-01-17T13:53:34.695Z,80.26
2023-01-17T13:56:31.769Z,80.35
2023-01-17T13:59:02.911Z,80.33
2023-01-17T14:01:38.629Z,80.35
2023-01-17T14:04:11.211Z,80.45
2023-01-17T14:06:44.917Z,80.54
2023-01-17T14:09:12.695Z,80.55
2023-01-17T14:11:51.806Z,80.59
2023-01-17T14:14:44.502Z,80.65
2023-01-17T14:17:19.078Z,80.62
2023-01-17T14:19:50.250Z,80.72
2023-01-17T14:22:20.911Z,80.89
2023-01-17T14:25:19.844Z,80.89
2023-01-17T14:27:51.696Z,80.92
2023-01-17T14:30:24.481Z,80.96
2023-01-17T14:33:10.879Z,81.03
2023-01-17T14:35:48.787Z,81.14
2023-01-17T14:38:22.335Z,81.23
2023-01-17T14:40:54.379Z,81.29
2023-01-17T14:43:25.255Z,81.35
2023-01-17T14:46:02.222Z,81.25
2023-01-17T14:48:30.637Z,81.56
2023-01-17T14:51:02.015Z,81.75
2023-01-17T14:53:32.011Z,81.88
2023-01-17T14:56:12.668Z,82.02
2023-01-17T14:58:41.584Z,82.19
2023-01-17T15:01:18.899Z,82.25
2023-01-17T15:03:49.074Z,82.37
2023-01-17T15:06:23.628Z,82.47
2023-01-17T15:08:54.240Z,82.63
2023-01-17T15:11:26.581Z,82.79
2023-01-17T15:13:57.660Z,82.93
2023-01-17T15:16:29.328Z,83.08
2023-01-17T15:18:57.725Z,83.15
2023-01-17T15:21:31.639Z,83.23
2023-01-17T15:24:03.807Z,83.32
2023-01-17T15:26:35.487Z,83.48
2023-01-17T15:29:07.456Z,83.57
2023-01-17T15:31:46.103Z,83.68
2023-01-17T15:34:43.030Z,83.83
2023-01-17T15:37:41.505Z,83.87
2023-01-17T15:40:15.970Z,83.98
2023-01-17T15:42:47.724Z,84.19
2023-01-17T15:45:22.712Z,84.36
2023-01-17T15:47:50.599Z,84.51
2023-01-17T15:50:22.460Z,84.71
2023-01-17T15:52:52.655Z,84.79
2023-01-17T15:55:38.545Z,84.93
2023-01-17T15:58:24.536Z,85.00
2023-01-17T16:00:52.951Z,85.09
2023-01-17T16:03:25.386Z,85.21
2023-01-17T16:05:54.585Z,85.34
2023-01-17T16:08:27.255Z,85.44
2023-01-17T16:11:02.338Z,85.52
2023-01-17T16:13:35.913Z,85.60
2023-01-17T16:16:10.895Z,85.67
2023-01-17T16:18:40.468Z,85.74
2023-01-17T16:21:21.526Z,85.82
2023-01-17T16:23:50.079Z,86.00
2023-01-17T16:26:18.362Z,86.08
2023-01-17T16:28:47.047Z,86.17
2023-01-17T16:31:15.810Z,86.20
2023-01-17T16:33:44.254Z,86.23
2023-01-17T16:36:14.883Z,86.25
2023-01-17T16:38:48.852Z,86.25
2023-01-17T16:41:17.533Z,86.35
2023-01-17T16:43:45.400Z,86.28
2023-01-17T16:46:13.598Z,86.40
2023-01-17T16:48:41.440Z,86.47
2023-01-17T16:51:09.542Z,86.45
2023-01-17T16:53:37.824Z,86.50
2023-01-17T16:56:12.246Z,86.54
2023-01-17T16:58:40.683Z,86.55
2023-01-17T17:01:16.077Z,86.64
2023-01-17T17:03:44.763Z,86.66
2023-01-17T17:06:13.115Z,86.76
2023-01-17T17:08:41.156Z,86.77
2023-01-17T17:11:13.262Z,86.83
2023-01-17T17:13:49.488Z,86.84
2023-01-17T17:16:20.732Z,86.85
2023-01-17T17:18:55.662Z,86.83
2023-01-17T17:21:23.842Z,86.83
2023-01-17T17:23:57.056Z,86.87
2023-01-17T17:26:27.658Z,86.86
2023-01-17T17:28:55.630Z,86.93
2023-01-17T17:31:26.933Z,86.94
2023-01-17T17:33:59.480Z,87.00
2023-01-17T17:36:27.820Z,87.06
2023-01-17T17:38:56.719Z,87.05
2023-01-17T17:41:34.052Z,87.08
2023-01-17T17:44:03.613Z,87.11
2023-01-17T17:46:33.851Z,87.09
2023-01-17T17:49:01.991Z,87.21
2023-01-17T17:51:38.469Z,87.31
2023-01-17T17:54:09.844Z,87.38
2023-01-17T17:56:38.018Z,87.43
2023-01-17T17:59:09.283Z,87.52
2023-01-17T18:01:41.192Z,87.53
2023-01-17T18:04:12.400Z,87.56
2023-01-17T18:06:41.463Z,87.63
2023-01-17T18:09:11.556Z,87.72
2023-01-17T18:11:41.355Z,87.75
2023-01-17T18:14:12.606Z,87.77
2023-01-17T18:16:43.330Z,87.75
2023-01-17T18:19:17.304Z,87.77
2023-01-17T18:21:45.689Z,87.84
2023-01-17T18:24:17.096Z,87.87
2023-01-17T18:26:53.428Z,87.91
2023-01-17T18:29:22.248Z,87.92
2023-01-17T18:31:51.473Z,87.99
2023-01-17T18:34:24.172Z,88.03
2023-01-17T18:36:52.610Z,88.08
2023-01-17T18:39:29.329Z,88.09
2023-01-17T18:41:58.364Z,88.13
2023-01-17T18:44:27.543Z,88.14
2023-01-17T18:46:58.775Z,88.14
2023-01-17T18:49:26.817Z,88.18
2023-01-17T18:51:54.816Z,88.20
2023-01-17T18:54:22.681Z,88.22
2023-01-17T18:56:51.368Z,88.20
2023-01-17T18:59:19.851Z,88.22
2023-01-17T19:01:47.899Z,88.22
2023-01-17T19:04:17.320Z,88.25
2023-01-17T19:06:47.542Z,88.28
2023-01-17T19:09:16.487Z,88.31
2023-01-17T19:11:45.739Z,88.32
2023-01-17T19:14:14.630Z,88.35
2023-01-17T19:16:43.888Z,88.40
2023-01-17T19:19:15.109Z,88.45
2023-01-17T19:21:43.709Z,88.49
2023-01-17T19:24:13.440Z,88.50
2023-01-17T19:26:42.445Z,88.47
2023-01-17T19:29:10.634Z,88.40
2023-01-17T19:31:42.600Z,88.39
2023-01-17T19:34:13.961Z,88.35
2023-01-17T19:36:42.519Z,88.37
2023-01-17T19:39:10.498Z,88.38
2023-01-17T19:41:43.645Z,88.40
2023-01-17T19:44:13.387Z,88.40
2023-01-17T19:46:42.089Z,88.45
2023-01-17T19:49:10.528Z,88.49
2023-01-17T19:51:39.841Z,88.54
2023-01-17T19:54:08.577Z,88.59
2023-01-17T19:56:36.968Z,88.66
2023-01-17T19:59:04.798Z,88.70
2023-01-17T20:01:34.729Z,88.71
2023-01-17T20:04:03.645Z,88.76
2023-01-17T20:06:34.115Z,88.80
2023-01-17T20:09:02.376Z,88.86
2023-01-17T20:11:30.142Z,88.89
2023-01-17T20:13:59.986Z,88.92
2023-01-17T20:16:30.514Z,88.91
2023-01-17T20:18:59.542Z,88.94
2023-01-17T20:21:29.107Z,88.98
2023-01-17T20:23:59.292Z,88.99
2023-01-17T20:26:35.145Z,89.06
2023-01-17T20:29:11.923Z,89.10
2023-01-17T20:31:42.820Z,89.10
2023-01-17T20:34:13.083Z,89.12
2023-01-17T20:36:42.225Z,89.11
2023-01-17T20:39:12.509Z,89.11
2023-01-17T20:41:42.935Z,89.16
2023-01-17T20:44:13.822Z,89.15
2023-01-17T20:46:42.634Z,89.20
2023-01-17T20:49:15.174Z,89.21
2023-01-17T20:51:44.845Z,89.24
2023-01-17T20:54:15.147Z,89.23
2023-01-17T20:56:43.327Z,89.20
2023-01-17T20:59:14.608Z,89.19
2023-01-17T21:01:43.960Z,89.21
2023-01-17T21:04:13.191Z,89.21
2023-01-17T21:06:42.683Z,89.25
2023-01-17T21:09:15.382Z,89.28
2023-01-17T21:11:43.525Z,89.26
2023-01-17T21:14:11.390Z,89.26
2023-01-17T21:16:40.095Z,89.28
2023-01-17T21:19:12.198Z,89.30
2023-01-17T21:21:40.337Z,89.29
2023-01-17T21:24:08.798Z,89.23
2023-01-17T21:26:39.051Z,89.19
2023-01-17T21:29:07.303Z,89.25
2023-01-17T21:31:36.929Z,89.23
2023-01-17T21:34:07.583Z,89.27
2023-01-17T21:36:38.667Z,89.34
2023-01-17T21:39:11.347Z,89.37
2023-01-17T21:41:41.287Z,89.41
2023-01-17T21:44:14.650Z,89.46
2023-01-17T21:46:42.629Z,89.49
2023-01-17T21:49:12.018Z,89.50
2023-01-17T21:51:52.698Z,89.53
2023-01-17T21:54:43.713Z,89.57
2023-01-17T21:57:35.008Z,89.59
2023-01-17T22:00:06.505Z,89.63
2023-01-17T22:02:34.552Z,89.66
2023-01-17T22:05:02.404Z,89.67
2023-01-17T22:07:30.198Z,89.70
2023-01-17T22:09:58.237Z,89.74
2023-01-17T22:12:26.204Z,89.77
2023-01-17T22:14:54.692Z,89.81
2023-01-17T22:17:22.852Z,89.85
2023-01-17T22:19:50.818Z,89.87
2023-01-17T22:22:18.690Z,89.88
2023-01-17T22:24:47.067Z,89.89
2023-01-17T22:27:14.932Z,89.93
2023-01-17T22:29:42.692Z,89.97
2023-01-17T22:32:10.572Z,90.00
2023-01-17T22:34:38.421Z,90.02
2023-01-17T22:37:10.280Z,90.03
2023-01-17T22:39:39.217Z,90.06
2023-01-17T22:42:07.449Z,90.08
2023-01-17T22:44:35.308Z,90.11
2023-01-17T22:47:03.493Z,90.12
2023-01-17T22:49:31.405Z,90.11
2023-01-17T22:51:59.333Z,90.12
2023-01-17T22:54:27.182Z,90.13
2023-01-17T22:56:54.948Z,90.14
2023-01-17T22:59:24.252Z,90.16
2023-01-17T23:01:53.880Z,90.17
2023-01-17T23:04:21.719Z,90.20
2023-01-17T23:06:49.584Z,90.22
2023-01-17T23:09:17.767Z,90.22
2023-01-17T23:11:50.054Z,90.24
2023-01-17T23:14:22.394Z,90.26
2023-01-17T23:17:20.267Z,90.26
2023-01-17T23:19:51.161Z,90.24
2023-01-17T23:22:27.001Z,90.25
2023-01-17T23:24:58.098Z,90.26
2023-01-17T23:27:47.475Z,90.26
2023-01-17T23:30:39.293Z,90.25
2023-01-17T23:33:07.061Z,90.27
2023-01-17T23:35:41.573Z,90.25
2023-01-17T23:38:29.804Z,90.24
2023-01-17T23:41:27.626Z,90.23
2023-01-17T23:43:57.805Z,90.23
2023-01-17T23:46:26.741Z,90.19
2023-01-17T23:48:55.348Z,90.19
2023-01-17T23:51:23.456Z,90.21
2023-01-17T23:53:57.486Z,90.23
2023-01-17T23:56:25.549Z,90.20
2023-01-17T23:58:53.311Z,90.16
